sensor_id;sensor_type;location;lat;lon;timestamp;pressure;altitude;pressure_sealevel;temperature;humidity
70338;BME280;57757;53.198;19.646;2022-11-04T00:00:22;99875.31;;;7.61;68.03
70338;BME280;57757;53.198;19.646;2022-11-04T00:02:58;99873.92;;;7.61;68.05
70338;BME280;57757;53.198;19.646;2022-11-04T00:05:26;99878.73;;;7.63;68.24
70338;BME280;57757;53.198;19.646;2022-11-04T00:07:53;99875.58;;;7.66;68.25
70338;BME280;57757;53.198;19.646;2022-11-04T00:10:37;99872.06;;;7.69;68.42
70338;BME280;57757;53.198;19.646;2022-11-04T00:13:20;99873.28;;;7.68;68.20
70338;BME280;57757;53.198;19.646;2022-11-04T00:15:48;99874.48;;;7.69;68.25
70338;BME280;57757;53.198;19.646;2022-11-04T00:18:34;99874.65;;;7.70;68.39
70338;BME280;57757;53.198;19.646;2022-11-04T00:21:02;99872.06;;;7.70;68.18
70338;BME280;57757;53.198;19.646;2022-11-04T00:23:52;99868.94;;;7.70;68.34
70338;BME280;57757;53.198;19.646;2022-11-04T00:26:36;99866.98;;;7.73;68.19
70338;BME280;57757;53.198;19.646;2022-11-04T00:29:20;99868.30;;;7.77;68.48
70338;BME280;57757;53.198;19.646;2022-11-04T00:31:47;99871.71;;;7.79;68.36
70338;BME280;57757;53.198;19.646;2022-11-04T00:34:30;99869.06;;;7.82;68.37
70338;BME280;57757;53.198;19.646;2022-11-04T00:36:58;99867.27;;;7.86;68.29
70338;BME280;57757;53.198;19.646;2022-11-04T00:39:26;99867.20;;;7.90;68.41
70338;BME280;57757;53.198;19.646;2022-11-04T00:41:54;99867.45;;;7.95;68.32
70338;BME280;57757;53.198;19.646;2022-11-04T00:44:21;99858.73;;;7.99;68.34
70338;BME280;57757;53.198;19.646;2022-11-04T00:46:49;99860.61;;;8.01;68.35
70338;BME280;57757;53.198;19.646;2022-11-04T00:49:16;99852.73;;;8.04;68.40
70338;BME280;57757;53.198;19.646;2022-11-04T00:51:44;99845.77;;;8.07;68.53
70338;BME280;57757;53.198;19.646;2022-11-04T00:54:12;99842.08;;;8.10;68.37
70338;BME280;57757;53.198;19.646;2022-11-04T00:56:40;99835.27;;;8.12;68.35
70338;BME280;57757;53.198;19.646;2022-11-04T00:59:08;99831.56;;;8.16;68.31
70338;BME280;57757;53.198;19.646;2022-11-04T01:01:41;99824.40;;;8.19;68.40
70338;BME280;57757;53.198;19.646;2022-11-04T01:04:09;99814.29;;;8.22;68.40
70338;BME280;57757;53.198;19.646;2022-11-04T01:06:37;99804.55;;;8.24;68.29
70338;BME280;57757;53.198;19.646;2022-11-04T01:09:07;99797.42;;;8.25;68.32
70338;BME280;57757;53.198;19.646;2022-11-04T01:11:34;99789.60;;;8.28;68.16
70338;BME280;57757;53.198;19.646;2022-11-04T01:14:02;99777.24;;;8.32;68.46
70338;BME280;57757;53.198;19.646;2022-11-04T01:16:29;99772.34;;;8.34;68.18
70338;BME280;57757;53.198;19.646;2022-11-04T01:18:57;99767.98;;;8.35;68.39
70338;BME280;57757;53.198;19.646;2022-11-04T01:21:25;99766.22;;;8.37;68.36
70338;BME280;57757;53.198;19.646;2022-11-04T01:23:52;99763.30;;;8.35;68.34
70338;BME280;57757;53.198;19.646;2022-11-04T01:26:23;99765.06;;;8.34;68.20
70338;BME280;57757;53.198;19.646;2022-11-04T01:28:52;99771.13;;;8.35;68.28
70338;BME280;57757;53.198;19.646;2022-11-04T01:31:23;99767.79;;;8.36;68.23
70338;BME280;57757;53.198;19.646;2022-11-04T01:33:52;99774.52;;;8.38;68.14
70338;BME280;57757;53.198;19.646;2022-11-04T01:36:21;99770.31;;;8.40;68.34
70338;BME280;57757;53.198;19.646;2022-11-04T01:38:49;99766.27;;;8.42;68.41
70338;BME280;57757;53.198;19.646;2022-11-04T01:41:21;99763.95;;;8.45;68.35
70338;BME280;57757;53.198;19.646;2022-11-04T01:43:54;99758.04;;;8.47;68.26
70338;BME280;57757;53.198;19.646;2022-11-04T01:46:42;99747.10;;;8.48;68.40
70338;BME280;57757;53.198;19.646;2022-11-04T01:49:35;99732.05;;;8.47;68.29
70338;BME280;57757;53.198;19.646;2022-11-04T01:52:16;99737.40;;;8.47;68.38
70338;BME280;57757;53.198;19.646;2022-11-04T01:54:47;99743.78;;;8.48;68.21
70338;BME280;57757;53.198;19.646;2022-11-04T01:57:19;99741.52;;;8.49;68.22
70338;BME280;57757;53.198;19.646;2022-11-04T01:59:49;99739.21;;;8.51;68.44
70338;BME280;57757;53.198;19.646;2022-11-04T02:02:17;99738.63;;;8.54;68.42
70338;BME280;57757;53.198;19.646;2022-11-04T02:04:45;99732.87;;;8.55;68.22
70338;BME280;57757;53.198;19.646;2022-11-04T02:07:13;99722.11;;;8.56;68.26
70338;BME280;57757;53.198;19.646;2022-11-04T02:09:41;99720.19;;;8.58;68.33
70338;BME280;57757;53.198;19.646;2022-11-04T02:12:10;99715.16;;;8.58;68.23
70338;BME280;57757;53.198;19.646;2022-11-04T02:14:54;99714.23;;;8.60;68.32
70338;BME280;57757;53.198;19.646;2022-11-04T02:17:52;99707.44;;;8.62;68.25
70338;BME280;57757;53.198;19.646;2022-11-04T02:20:34;99702.02;;;8.63;68.18
70338;BME280;57757;53.198;19.646;2022-11-04T02:23:31;99700.45;;;8.64;68.23
70338;BME280;57757;53.198;19.646;2022-11-04T02:32:08;99683.17;;;8.61;68.21
70338;BME280;57757;53.198;19.646;2022-11-04T02:34:54;99687.59;;;8.58;68.00
70338;BME280;57757;53.198;19.646;2022-11-04T02:37:49;99683.98;;;8.57;68.03
70338;BME280;57757;53.198;19.646;2022-11-04T02:45:51;99680.00;;;8.49;68.22
70338;BME280;57757;53.198;19.646;2022-11-04T02:48:37;99680.02;;;8.48;68.27
70338;BME280;57757;53.198;19.646;2022-11-04T02:51:14;99675.93;;;8.45;68.34
70338;BME280;57757;53.198;19.646;2022-11-04T02:53:48;99674.06;;;8.43;68.32
70338;BME280;57757;53.198;19.646;2022-11-04T02:56:20;99671.85;;;8.41;68.42
70338;BME280;57757;53.198;19.646;2022-11-04T02:58:55;99672.70;;;8.43;68.40
70338;BME280;57757;53.198;19.646;2022-11-04T03:01:28;99674.37;;;8.45;68.31
70338;BME280;57757;53.198;19.646;2022-11-04T03:04:06;99669.64;;;8.47;68.21
70338;BME280;57757;53.198;19.646;2022-11-04T03:06:35;99668.56;;;8.49;68.34
70338;BME280;57757;53.198;19.646;2022-11-04T03:09:05;99667.35;;;8.49;68.29
70338;BME280;57757;53.198;19.646;2022-11-04T03:11:35;99668.04;;;8.50;68.37
70338;BME280;57757;53.198;19.646;2022-11-04T03:14:21;99665.77;;;8.50;68.23
70338;BME280;57757;53.198;19.646;2022-11-04T03:16:54;99659.38;;;8.50;68.37
70338;BME280;57757;53.198;19.646;2022-11-04T03:19:43;99652.63;;;8.48;68.36
70338;BME280;57757;53.198;19.646;2022-11-04T03:22:17;99652.84;;;8.47;68.25
70338;BME280;57757;53.198;19.646;2022-11-04T03:24:47;99652.30;;;8.48;68.43
70338;BME280;57757;53.198;19.646;2022-11-04T03:30:19;99647.02;;;8.51;68.39
70338;BME280;57757;53.198;19.646;2022-11-04T03:33:06;99645.48;;;8.51;68.31
70338;BME280;57757;53.198;19.646;2022-11-04T03:35:37;99648.56;;;8.52;68.37
70338;BME280;57757;53.198;19.646;2022-11-04T03:38:05;99643.04;;;8.51;68.51
70338;BME280;57757;53.198;19.646;2022-11-04T03:40:32;99640.33;;;8.49;68.29
70338;BME280;57757;53.198;19.646;2022-11-04T03:43:07;99634.10;;;8.48;68.44
70338;BME280;57757;53.198;19.646;2022-11-04T03:45:38;99636.25;;;8.45;68.36
70338;BME280;57757;53.198;19.646;2022-11-04T03:48:08;99632.79;;;8.45;68.39
70338;BME280;57757;53.198;19.646;2022-11-04T03:50:47;99633.83;;;8.46;68.45
70338;BME280;57757;53.198;19.646;2022-11-04T03:53:21;99629.45;;;8.47;68.51
70338;BME280;57757;53.198;19.646;2022-11-04T03:59:02;99624.73;;;8.49;68.38
70338;BME280;57757;53.198;19.646;2022-11-04T04:04:37;99616.60;;;8.48;68.49
70338;BME280;57757;53.198;19.646;2022-11-04T04:07:17;99617.54;;;8.45;68.38
70338;BME280;57757;53.198;19.646;2022-11-04T04:09:53;99617.89;;;8.45;68.44
70338;BME280;57757;53.198;19.646;2022-11-04T04:14:57;99615.58;;;8.47;68.46
70338;BME280;57757;53.198;19.646;2022-11-04T04:17:40;99614.34;;;8.48;68.51
70338;BME280;57757;53.198;19.646;2022-11-04T04:20:27;99606.69;;;8.49;68.49
70338;BME280;57757;53.198;19.646;2022-11-04T04:23:00;99604.08;;;8.50;68.51
70338;BME280;57757;53.198;19.646;2022-11-04T04:25:30;99600.65;;;8.48;68.48
70338;BME280;57757;53.198;19.646;2022-11-04T04:28:16;99604.14;;;8.47;68.54
70338;BME280;57757;53.198;19.646;2022-11-04T04:30:45;99603.09;;;8.48;68.46
70338;BME280;57757;53.198;19.646;2022-11-04T04:33:16;99604.23;;;8.51;68.36
70338;BME280;57757;53.198;19.646;2022-11-04T04:35:53;99602.97;;;8.52;68.41
70338;BME280;57757;53.198;19.646;2022-11-04T04:44:27;99605.54;;;8.54;68.57
70338;BME280;57757;53.198;19.646;2022-11-04T04:47:18;99601.42;;;8.52;68.54
70338;BME280;57757;53.198;19.646;2022-11-04T04:49:52;99602.98;;;8.52;68.51
70338;BME280;57757;53.198;19.646;2022-11-04T04:52:21;99602.47;;;8.52;68.46
70338;BME280;57757;53.198;19.646;2022-11-04T04:54:49;99600.02;;;8.53;68.43
70338;BME280;57757;53.198;19.646;2022-11-04T04:57:17;99597.19;;;8.55;68.46
70338;BME280;57757;53.198;19.646;2022-11-04T04:59:44;99594.20;;;8.57;68.39
70338;BME280;57757;53.198;19.646;2022-11-04T05:02:12;99597.08;;;8.59;68.57
70338;BME280;57757;53.198;19.646;2022-11-04T05:04:40;99593.59;;;8.61;68.60
70338;BME280;57757;53.198;19.646;2022-11-04T05:07:07;99596.33;;;8.62;68.51
70338;BME280;57757;53.198;19.646;2022-11-04T05:09:36;99594.27;;;8.62;68.51
70338;BME280;57757;53.198;19.646;2022-11-04T05:12:04;99589.27;;;8.59;68.49
70338;BME280;57757;53.198;19.646;2022-11-04T05:14:31;99590.19;;;8.58;68.44
70338;BME280;57757;53.198;19.646;2022-11-04T05:16:59;99588.50;;;8.57;68.39
70338;BME280;57757;53.198;19.646;2022-11-04T05:19:27;99586.57;;;8.57;68.43
70338;BME280;57757;53.198;19.646;2022-11-04T05:21:54;99583.55;;;8.60;68.44
70338;BME280;57757;53.198;19.646;2022-11-04T05:24:22;99582.66;;;8.61;68.34
70338;BME280;57757;53.198;19.646;2022-11-04T05:26:49;99583.47;;;8.63;68.53
70338;BME280;57757;53.198;19.646;2022-11-04T05:29:17;99581.02;;;8.64;68.49
70338;BME280;57757;53.198;19.646;2022-11-04T05:31:44;99582.37;;;8.66;68.45
70338;BME280;57757;53.198;19.646;2022-11-04T05:34:12;99581.11;;;8.67;68.48
70338;BME280;57757;53.198;19.646;2022-11-04T05:36:40;99573.46;;;8.68;68.53
70338;BME280;57757;53.198;19.646;2022-11-04T05:39:11;99566.18;;;8.68;68.57
70338;BME280;57757;53.198;19.646;2022-11-04T05:41:39;99565.50;;;8.67;68.50
70338;BME280;57757;53.198;19.646;2022-11-04T05:44:07;99565.64;;;8.69;68.44
70338;BME280;57757;53.198;19.646;2022-11-04T05:46:36;99564.71;;;8.71;68.27
70338;BME280;57757;53.198;19.646;2022-11-04T05:49:04;99560.55;;;8.72;68.40
70338;BME280;57757;53.198;19.646;2022-11-04T05:51:32;99560.54;;;8.73;68.52
70338;BME280;57757;53.198;19.646;2022-11-04T05:53:59;99572.84;;;8.73;68.46
70338;BME280;57757;53.198;19.646;2022-11-04T05:56:28;99586.87;;;8.73;68.45
70338;BME280;57757;53.198;19.646;2022-11-04T05:58:55;99578.43;;;8.70;68.38
70338;BME280;57757;53.198;19.646;2022-11-04T06:03:54;99585.49;;;8.73;68.44
70338;BME280;57757;53.198;19.646;2022-11-04T06:06:23;99577.11;;;8.75;68.41
70338;BME280;57757;53.198;19.646;2022-11-04T06:08:52;99579.85;;;8.76;68.51
70338;BME280;57757;53.198;19.646;2022-11-04T06:11:21;99575.48;;;8.78;68.58
70338;BME280;57757;53.198;19.646;2022-11-04T06:13:49;99582.70;;;8.80;68.67
70338;BME280;57757;53.198;19.646;2022-11-04T06:16:17;99575.61;;;8.79;68.55
70338;BME280;57757;53.198;19.646;2022-11-04T06:18:45;99578.58;;;8.78;68.36
70338;BME280;57757;53.198;19.646;2022-11-04T06:23:41;99582.16;;;8.74;68.36
70338;BME280;57757;53.198;19.646;2022-11-04T06:26:10;99582.21;;;8.72;68.44
70338;BME280;57757;53.198;19.646;2022-11-04T06:28:38;99581.16;;;8.72;68.40
70338;BME280;57757;53.198;19.646;2022-11-04T06:31:08;99576.48;;;8.73;68.31
70338;BME280;57757;53.198;19.646;2022-11-04T06:33:36;99575.55;;;8.75;68.46
70338;BME280;57757;53.198;19.646;2022-11-04T06:36:06;99580.52;;;8.77;68.47
70338;BME280;57757;53.198;19.646;2022-11-04T06:38:35;99578.03;;;8.79;68.58
70338;BME280;57757;53.198;19.646;2022-11-04T06:41:10;99565.18;;;8.81;68.38
70338;BME280;57757;53.198;19.646;2022-11-04T06:43:38;99564.34;;;8.79;68.46
70338;BME280;57757;53.198;19.646;2022-11-04T06:46:23;99560.05;;;8.77;68.46
70338;BME280;57757;53.198;19.646;2022-11-04T06:48:51;99561.25;;;8.78;68.38
70338;BME280;57757;53.198;19.646;2022-11-04T06:51:20;99569.89;;;8.79;68.38
70338;BME280;57757;53.198;19.646;2022-11-04T06:53:48;99570.00;;;8.81;68.44
70338;BME280;57757;53.198;19.646;2022-11-04T06:56:15;99561.90;;;8.80;68.40
70338;BME280;57757;53.198;19.646;2022-11-04T06:58:46;99554.05;;;8.81;68.58
70338;BME280;57757;53.198;19.646;2022-11-04T07:01:15;99555.57;;;8.83;68.58
70338;BME280;57757;53.198;19.646;2022-11-04T07:03:53;99552.95;;;8.84;68.64
70338;BME280;57757;53.198;19.646;2022-11-04T07:06:21;99556.19;;;8.86;68.59
70338;BME280;57757;53.198;19.646;2022-11-04T07:08:51;99554.42;;;8.87;68.59
70338;BME280;57757;53.198;19.646;2022-11-04T07:11:22;99556.95;;;8.90;68.47
70338;BME280;57757;53.198;19.646;2022-11-04T07:13:51;99555.77;;;8.95;68.55
70338;BME280;57757;53.198;19.646;2022-11-04T07:16:19;99555.43;;;9.01;68.80
70338;BME280;57757;53.198;19.646;2022-11-04T07:18:46;99554.38;;;9.08;68.67
70338;BME280;57757;53.198;19.646;2022-11-04T07:21:15;99557.56;;;9.12;68.60
70338;BME280;57757;53.198;19.646;2022-11-04T07:23:43;99561.15;;;9.14;68.53
70338;BME280;57757;53.198;19.646;2022-11-04T07:26:11;99561.19;;;9.13;68.32
70338;BME280;57757;53.198;19.646;2022-11-04T07:28:38;99561.23;;;9.11;68.32
70338;BME280;57757;53.198;19.646;2022-11-04T07:31:09;99569.75;;;9.10;68.48
70338;BME280;57757;53.198;19.646;2022-11-04T07:33:38;99576.01;;;9.10;68.31
70338;BME280;57757;53.198;19.646;2022-11-04T07:36:09;99571.13;;;9.11;68.31
70338;BME280;57757;53.198;19.646;2022-11-04T07:38:38;99565.48;;;9.14;68.47
70338;BME280;57757;53.198;19.646;2022-11-04T07:41:05;99566.65;;;9.16;68.34
70338;BME280;57757;53.198;19.646;2022-11-04T07:43:35;99575.52;;;9.15;68.32
70338;BME280;57757;53.198;19.646;2022-11-04T07:46:06;99575.15;;;9.16;68.39
70338;BME280;57757;53.198;19.646;2022-11-04T07:48:35;99572.52;;;9.17;68.49
70338;BME280;57757;53.198;19.646;2022-11-04T07:51:04;99584.70;;;9.16;68.32
70338;BME280;57757;53.198;19.646;2022-11-04T07:53:32;99580.56;;;9.15;68.38
70338;BME280;57757;53.198;19.646;2022-11-04T07:56:06;99579.02;;;9.14;68.45
70338;BME280;57757;53.198;19.646;2022-11-04T07:58:34;99575.85;;;9.16;68.33
70338;BME280;57757;53.198;19.646;2022-11-04T08:01:19;99581.80;;;9.20;68.41
70338;BME280;57757;53.198;19.646;2022-11-04T08:03:48;99582.43;;;9.23;68.39
70338;BME280;57757;53.198;19.646;2022-11-04T08:06:20;99578.21;;;9.24;68.48
70338;BME280;57757;53.198;19.646;2022-11-04T08:08:47;99574.70;;;9.26;68.55
70338;BME280;57757;53.198;19.646;2022-11-04T08:11:18;99571.05;;;9.26;68.55
70338;BME280;57757;53.198;19.646;2022-11-04T08:13:46;99575.52;;;9.27;68.42
70338;BME280;57757;53.198;19.646;2022-11-04T08:16:16;99583.15;;;9.28;68.43
70338;BME280;57757;53.198;19.646;2022-11-04T08:18:44;99586.57;;;9.23;68.21
70338;BME280;57757;53.198;19.646;2022-11-04T08:21:12;99585.39;;;9.22;68.24
70338;BME280;57757;53.198;19.646;2022-11-04T08:23:40;99576.52;;;9.23;68.33
70338;BME280;57757;53.198;19.646;2022-11-04T08:26:10;99574.61;;;9.23;68.21
70338;BME280;57757;53.198;19.646;2022-11-04T08:28:38;99572.10;;;9.26;68.48
70338;BME280;57757;53.198;19.646;2022-11-04T08:31:14;99571.61;;;9.30;68.59
70338;BME280;57757;53.198;19.646;2022-11-04T08:33:43;99574.29;;;9.35;68.38
70338;BME280;57757;53.198;19.646;2022-11-04T08:36:20;99574.90;;;9.37;68.43
70338;BME280;57757;53.198;19.646;2022-11-04T08:38:48;99574.59;;;9.42;68.56
70338;BME280;57757;53.198;19.646;2022-11-04T08:41:19;99575.52;;;9.46;68.55
70338;BME280;57757;53.198;19.646;2022-11-04T08:43:48;99576.09;;;9.50;68.55
70338;BME280;57757;53.198;19.646;2022-11-04T08:46:17;99568.05;;;9.52;68.42
70338;BME280;57757;53.198;19.646;2022-11-04T08:48:45;99570.05;;;9.55;68.47
70338;BME280;57757;53.198;19.646;2022-11-04T08:51:16;99568.91;;;9.58;68.38
70338;BME280;57757;53.198;19.646;2022-11-04T08:53:44;99565.95;;;9.64;68.29
70338;BME280;57757;53.198;19.646;2022-11-04T08:56:24;99568.86;;;9.72;68.47
70338;BME280;57757;53.198;19.646;2022-11-04T08:58:52;99563.71;;;9.76;68.34
70338;BME280;57757;53.198;19.646;2022-11-04T09:01:21;99561.75;;;9.77;68.40
70338;BME280;57757;53.198;19.646;2022-11-04T09:03:50;99564.41;;;9.81;68.51
70338;BME280;57757;53.198;19.646;2022-11-04T09:06:34;99561.18;;;9.85;68.49
70338;BME280;57757;53.198;19.646;2022-11-04T09:09:07;99561.98;;;9.86;68.59
70338;BME280;57757;53.198;19.646;2022-11-04T09:11:40;99554.86;;;9.87;68.48
70338;BME280;57757;53.198;19.646;2022-11-04T09:14:11;99550.48;;;9.88;68.59
70338;BME280;57757;53.198;19.646;2022-11-04T09:16:40;99550.69;;;9.87;68.50
70338;BME280;57757;53.198;19.646;2022-11-04T09:19:19;99548.25;;;9.87;68.34
70338;BME280;57757;53.198;19.646;2022-11-04T09:21:52;99544.41;;;9.88;68.51
70338;BME280;57757;53.198;19.646;2022-11-04T09:24:20;99545.39;;;9.89;68.63
70338;BME280;57757;53.198;19.646;2022-11-04T09:26:48;99544.20;;;9.89;68.58
70338;BME280;57757;53.198;19.646;2022-11-04T09:29:16;99543.19;;;9.88;68.58
70338;BME280;57757;53.198;19.646;2022-11-04T09:31:43;99534.86;;;9.88;68.62
70338;BME280;57757;53.198;19.646;2022-11-04T09:34:11;99531.04;;;9.88;68.71
70338;BME280;57757;53.198;19.646;2022-11-04T09:36:39;99523.23;;;9.87;68.49
70338;BME280;57757;53.198;19.646;2022-11-04T09:39:13;99519.23;;;9.87;68.62
70338;BME280;57757;53.198;19.646;2022-11-04T09:42:12;99528.32;;;9.91;68.53
70338;BME280;57757;53.198;19.646;2022-11-04T09:44:50;99534.20;;;9.97;68.92
70338;BME280;57757;53.198;19.646;2022-11-04T09:47:41;99521.30;;;10.04;68.81
70338;BME280;57757;53.198;19.646;2022-11-04T09:50:21;99518.90;;;10.09;68.89
70338;BME280;57757;53.198;19.646;2022-11-04T09:53:16;99507.29;;;10.15;68.82
70338;BME280;57757;53.198;19.646;2022-11-04T09:55:59;99502.30;;;10.18;69.05
70338;BME280;57757;53.198;19.646;2022-11-04T09:58:35;99498.63;;;10.24;68.94
70338;BME280;57757;53.198;19.646;2022-11-04T10:13:38;99482.02;;;10.53;68.86
70338;BME280;57757;53.198;19.646;2022-11-04T10:16:34;99480.09;;;10.53;68.71
70338;BME280;57757;53.198;19.646;2022-11-04T10:24:53;99476.35;;;10.56;68.96
70338;BME280;57757;53.198;19.646;2022-11-04T10:27:33;99478.39;;;10.62;68.81
70338;BME280;57757;53.198;19.646;2022-11-04T10:30:17;99476.64;;;10.68;68.80
70338;BME280;57757;53.198;19.646;2022-11-04T10:33:04;99474.45;;;10.75;68.98
70338;BME280;57757;53.198;19.646;2022-11-04T10:35:53;99481.36;;;10.81;68.82
70338;BME280;57757;53.198;19.646;2022-11-04T10:41:00;99487.42;;;10.82;68.64
70338;BME280;57757;53.198;19.646;2022-11-04T10:43:36;99488.50;;;10.86;69.31
70338;BME280;57757;53.198;19.646;2022-11-04T10:52:04;99484.55;;;12.00;68.31
70338;BME280;57757;53.198;19.646;2022-11-04T10:54:41;99483.93;;;11.93;68.03
70338;BME280;57757;53.198;19.646;2022-11-04T10:57:12;99484.85;;;11.87;67.88
70338;BME280;57757;53.198;19.646;2022-11-04T10:59:54;99477.92;;;11.82;67.81
70338;BME280;57757;53.198;19.646;2022-11-04T11:05:22;99466.77;;;11.78;67.97
70338;BME280;57757;53.198;19.646;2022-11-04T11:07:53;99463.15;;;11.90;68.12
70338;BME280;57757;53.198;19.646;2022-11-04T11:10:26;99465.98;;;12.06;68.39
70338;BME280;57757;53.198;19.646;2022-11-04T11:13:04;99458.09;;;12.41;68.66
70338;BME280;57757;53.198;19.646;2022-11-04T11:15:36;99456.70;;;12.69;68.52
70338;BME280;57757;53.198;19.646;2022-11-04T11:20:33;99445.88;;;13.24;68.26
70338;BME280;57757;53.198;19.646;2022-11-04T11:23:04;99439.83;;;13.45;67.98
70338;BME280;57757;53.198;19.646;2022-11-04T11:25:48;99439.63;;;13.57;67.77
70338;BME280;57757;53.198;19.646;2022-11-04T11:28:23;99437.60;;;13.62;67.45
70338;BME280;57757;53.198;19.646;2022-11-04T11:30:56;99433.89;;;13.63;67.29
70338;BME280;57757;53.198;19.646;2022-11-04T11:36:19;99419.23;;;13.67;67.74
70338;BME280;57757;53.198;19.646;2022-11-04T11:38:57;99415.64;;;14.01;68.21
70338;BME280;57757;53.198;19.646;2022-11-04T11:41:29;99411.23;;;13.87;66.64
70338;BME280;57757;53.198;19.646;2022-11-04T11:44:06;99415.95;;;13.69;66.21
70338;BME280;57757;53.198;19.646;2022-11-04T11:46:56;99418.45;;;13.46;66.54
70338;BME280;57757;53.198;19.646;2022-11-04T11:49:30;99417.20;;;13.39;66.78
70338;BME280;57757;53.198;19.646;2022-11-04T11:52:23;99413.70;;;13.32;66.78
70338;BME280;57757;53.198;19.646;2022-11-04T11:55:00;99406.36;;;13.18;66.55
70338;BME280;57757;53.198;19.646;2022-11-04T12:00:46;99393.73;;;12.95;66.83
70338;BME280;57757;53.198;19.646;2022-11-04T12:15:02;99380.39;;;13.17;67.19
70338;BME280;57757;53.198;19.646;2022-11-04T12:20:09;99366.13;;;13.38;67.14
70338;BME280;57757;53.198;19.646;2022-11-04T12:29:32;99355.27;;;13.67;66.97
70338;BME280;57757;53.198;19.646;2022-11-04T12:31:45;99350.48;;;13.75;67.09
70338;BME280;57757;53.198;19.646;2022-11-04T12:37:10;99355.50;;;14.14;67.35
70338;BME280;57757;53.198;19.646;2022-11-04T12:47:48;99350.37;;;14.50;66.52
70338;BME280;57757;53.198;19.646;2022-11-04T12:56:08;99353.05;;;14.11;65.90
70338;BME280;57757;53.198;19.646;2022-11-04T12:58:46;99359.39;;;14.00;65.88
70338;BME280;57757;53.198;19.646;2022-11-04T13:01:27;99353.15;;;13.89;65.83
70338;BME280;57757;53.198;19.646;2022-11-04T13:04:11;99347.63;;;13.80;65.97
70338;BME280;57757;53.198;19.646;2022-11-04T13:06:53;99340.86;;;13.69;65.64
70338;BME280;57757;53.198;19.646;2022-11-04T13:10:14;99336.64;;;13.51;65.57
70338;BME280;57757;53.198;19.646;2022-11-04T13:12:40;99338.36;;;13.34;65.78
70338;BME280;57757;53.198;19.646;2022-11-04T13:15:26;99338.00;;;13.23;65.74
70338;BME280;57757;53.198;19.646;2022-11-04T13:18:02;99338.52;;;13.09;65.71
70338;BME280;57757;53.198;19.646;2022-11-04T13:20:35;99340.33;;;13.03;66.25
70338;BME280;57757;53.198;19.646;2022-11-04T13:23:16;99339.70;;;12.98;65.78
70338;BME280;57757;53.198;19.646;2022-11-04T13:25:45;99336.65;;;12.88;65.67
70338;BME280;57757;53.198;19.646;2022-11-04T13:28:17;99337.05;;;12.79;65.64
70338;BME280;57757;53.198;19.646;2022-11-04T13:39:24;99328.91;;;12.74;66.25
70338;BME280;57757;53.198;19.646;2022-11-04T13:44:54;99329.35;;;13.85;67.46
70338;BME280;57757;53.198;19.646;2022-11-04T13:47:34;99334.09;;;14.59;67.28
70338;BME280;57757;53.198;19.646;2022-11-04T13:50:03;99336.02;;;15.05;66.20
70338;BME280;57757;53.198;19.646;2022-11-04T13:52:32;99343.36;;;15.14;65.86
70338;BME280;57757;53.198;19.646;2022-11-04T13:55:03;99348.35;;;15.44;65.76
70338;BME280;57757;53.198;19.646;2022-11-04T13:57:48;99351.92;;;15.95;65.94
70338;BME280;57757;53.198;19.646;2022-11-04T14:00:20;99357.02;;;16.38;65.71
70338;BME280;57757;53.198;19.646;2022-11-04T14:08:13;99361.25;;;16.58;63.99
70338;BME280;57757;53.198;19.646;2022-11-04T14:18:46;99374.59;;;14.84;63.65
70338;BME280;57757;53.198;19.646;2022-11-04T14:21:23;99376.59;;;14.57;63.81
70338;BME280;57757;53.198;19.646;2022-11-04T14:23:56;99367.92;;;14.24;63.74
70338;BME280;57757;53.198;19.646;2022-11-04T14:26:41;99362.01;;;13.86;63.54
70338;BME280;57757;53.198;19.646;2022-11-04T14:29:18;99366.83;;;13.45;63.66
70338;BME280;57757;53.198;19.646;2022-11-04T14:31:51;99359.27;;;13.13;63.83
70338;BME280;57757;53.198;19.646;2022-11-04T14:34:27;99362.70;;;12.76;63.75
70338;BME280;57757;53.198;19.646;2022-11-04T14:37:00;99360.58;;;12.46;63.93
70338;BME280;57757;53.198;19.646;2022-11-04T14:39:46;99360.02;;;12.19;64.25
70338;BME280;57757;53.198;19.646;2022-11-04T14:45:25;99367.05;;;11.76;64.52
70338;BME280;57757;53.198;19.646;2022-11-04T14:48:01;99369.65;;;11.59;64.45
70338;BME280;57757;53.198;19.646;2022-11-04T14:50:45;99366.84;;;11.41;64.58
70338;BME280;57757;53.198;19.646;2022-11-04T14:53:40;99371.91;;;11.28;64.65
70338;BME280;57757;53.198;19.646;2022-11-04T14:56:20;99382.88;;;11.15;64.70
70338;BME280;57757;53.198;19.646;2022-11-04T14:58:55;99383.48;;;11.03;64.84
70338;BME280;57757;53.198;19.646;2022-11-04T15:01:25;99389.72;;;10.95;64.85
70338;BME280;57757;53.198;19.646;2022-11-04T15:04:12;99386.50;;;10.88;64.93
70338;BME280;57757;53.198;19.646;2022-11-04T15:06:53;99394.63;;;10.80;65.04
70338;BME280;57757;53.198;19.646;2022-11-04T15:09:33;99391.48;;;10.71;65.14
70338;BME280;57757;53.198;19.646;2022-11-04T15:14:51;99390.92;;;10.58;65.28
70338;BME280;57757;53.198;19.646;2022-11-04T15:17:19;99390.99;;;10.51;65.25
70338;BME280;57757;53.198;19.646;2022-11-04T15:19:53;99386.02;;;10.44;65.35
70338;BME280;57757;53.198;19.646;2022-11-04T15:22:22;99383.98;;;10.38;65.51
70338;BME280;57757;53.198;19.646;2022-11-04T15:24:51;99386.94;;;10.33;65.56
70338;BME280;57757;53.198;19.646;2022-11-04T15:27:25;99388.11;;;10.30;65.52
70338;BME280;57757;53.198;19.646;2022-11-04T15:29:59;99389.09;;;10.27;65.60
70338;BME280;57757;53.198;19.646;2022-11-04T15:32:27;99395.23;;;10.24;65.66
70338;BME280;57757;53.198;19.646;2022-11-04T15:34:55;99394.86;;;10.20;65.68
70338;BME280;57757;53.198;19.646;2022-11-04T15:37:24;99394.31;;;10.16;65.68
70338;BME280;57757;53.198;19.646;2022-11-04T15:39:56;99396.53;;;10.11;65.69
70338;BME280;57757;53.198;19.646;2022-11-04T15:42:27;99403.16;;;10.05;65.72
70338;BME280;57757;53.198;19.646;2022-11-04T15:45:33;99403.40;;;9.98;65.82
70338;BME280;57757;53.198;19.646;2022-11-04T15:48:22;99409.01;;;9.91;65.83
70338;BME280;57757;53.198;19.646;2022-11-04T15:53:27;99409.60;;;9.84;65.83